sensor_id;sensor_type;location;lat;lon;timestamp;pressure;altitude;pressure_sealevel;temperature;humidity
49030;BME280;43337;52.070;4.508;2023-11-22T00:01:35;103002.31;;;5.88;100.00
49030;BME280;43337;52.070;4.508;2023-11-22T00:04:01;103009.38;;;5.94;100.00
49030;BME280;43337;52.070;4.508;2023-11-22T00:06:27;102990.91;;;5.83;100.00
49030;BME280;43337;52.070;4.508;2023-11-22T00:08:52;102998.84;;;5.91;100.00
49030;BME280;43337;52.070;4.508;2023-11-22T00:11:18;102993.56;;;5.86;100.00
49030;BME280;43337;52.070;4.508;2023-11-22T00:13:43;102997.03;;;5.85;100.00
49030;BME280;43337;52.070;4.508;2023-11-22T00:16:08;103002.22;;;5.84;100.00
49030;BME280;43337;52.070;4.508;2023-11-22T00:18:37;102999.53;;;5.76;100.00
49030;BME280;43337;52.070;4.508;2023-11-22T00:21:03;103014.38;;;5.79;100.00
49030;BME280;43337;52.070;4.508;2023-11-22T00:23:29;102998.59;;;5.70;100.00
49030;BME280;43337;52.070;4.508;2023-11-22T00:25:55;103022.16;;;5.74;100.00
49030;BME280;43337;52.070;4.508;2023-11-22T00:28:22;103010.75;;;5.66;100.00
49030;BME280;43337;52.070;4.508;2023-11-22T00:30:48;103040.47;;;5.76;100.00
49030;BME280;43337;52.070;4.508;2023-11-22T00:33:13;103036.09;;;5.73;100.00
49030;BME280;43337;52.070;4.508;2023-11-22T00:35:40;103030.03;;;5.76;100.00
49030;BME280;43337;52.070;4.508;2023-11-22T00:38:05;103037.91;;;5.79;100.00
49030;BME280;43337;52.070;4.508;2023-11-22T00:40:31;103024.75;;;5.71;100.00
49030;BME280;43337;52.070;4.508;2023-11-22T00:42:57;103045.75;;;5.77;100.00
49030;BME280;43337;52.070;4.508;2023-11-22T00:45:25;103044.00;;;5.79;100.00
49030;BME280;43337;52.070;4.508;2023-11-22T00:47:50;103046.63;;;5.78;100.00
49030;BME280;43337;52.070;4.508;2023-11-22T00:50:16;103011.47;;;5.56;100.00
49030;BME280;43337;52.070;4.508;2023-11-22T00:52:46;103038.72;;;5.73;100.00
49030;BME280;43337;52.070;4.508;2023-11-22T00:55:11;103041.25;;;5.69;100.00
49030;BME280;43337;52.070;4.508;2023-11-22T00:57:37;103035.19;;;5.70;100.00
49030;BME280;43337;52.070;4.508;2023-11-22T01:00:03;103056.97;;;5.70;100.00
49030;BME280;43337;52.070;4.508;2023-11-22T01:02:29;103052.44;;;5.58;100.00
49030;BME280;43337;52.070;4.508;2023-11-22T01:04:55;103051.47;;;5.52;100.00
49030;BME280;43337;52.070;4.508;2023-11-22T01:07:20;103051.53;;;5.55;100.00
49030;BME280;43337;52.070;4.508;2023-11-22T01:09:45;103067.25;;;5.59;100.00
49030;BME280;43337;52.070;4.508;2023-11-22T01:12:11;103064.53;;;5.52;100.00
49030;BME280;43337;52.070;4.508;2023-11-22T01:14:38;103037.22;;;5.30;100.00
49030;BME280;43337;52.070;4.508;2023-11-22T01:17:03;103076.69;;;5.48;100.00
49030;BME280;43337;52.070;4.508;2023-11-22T01:19:29;103070.53;;;5.45;100.00
49030;BME280;43337;52.070;4.508;2023-11-22T01:21:54;103076.59;;;5.42;100.00
49030;BME280;43337;52.070;4.508;2023-11-22T01:24:19;103073.06;;;5.38;100.00
49030;BME280;43337;52.070;4.508;2023-11-22T01:26:45;103062.38;;;5.23;100.00
49030;BME280;43337;52.070;4.508;2023-11-22T01:29:10;103093.03;;;5.35;100.00
49030;BME280;43337;52.070;4.508;2023-11-22T01:31:37;103090.38;;;5.32;100.00
49030;BME280;43337;52.070;4.508;2023-11-22T01:34:04;103085.84;;;5.22;100.00
49030;BME280;43337;52.070;4.508;2023-11-22T01:36:30;103081.50;;;5.22;100.00
49030;BME280;43337;52.070;4.508;2023-11-22T01:38:56;103078.88;;;5.19;100.00
49030;BME280;43337;52.070;4.508;2023-11-22T01:41:23;103091.06;;;5.22;100.00
49030;BME280;43337;52.070;4.508;2023-11-22T01:43:49;103059.47;;;5.05;100.00
49030;BME280;43337;52.070;4.508;2023-11-22T01:46:24;103072.59;;;5.11;100.00
49030;BME280;43337;52.070;4.508;2023-11-22T01:48:50;103085.78;;;5.16;100.00
49030;BME280;43337;52.070;4.508;2023-11-22T01:51:21;103102.19;;;5.08;100.00
49030;BME280;43337;52.070;4.508;2023-11-22T01:53:49;103095.22;;;5.07;100.00
49030;BME280;43337;52.070;4.508;2023-11-22T01:56:19;103103.03;;;5.07;100.00
49030;BME280;43337;52.070;4.508;2023-11-22T01:58:45;103067.84;;;4.85;100.00
49030;BME280;43337;52.070;4.508;2023-11-22T02:01:12;103100.34;;;5.03;100.00
49030;BME280;43337;52.070;4.508;2023-11-22T02:03:39;103090.63;;;4.96;100.00
49030;BME280;43337;52.070;4.508;2023-11-22T02:06:05;103094.09;;;4.93;100.00
49030;BME280;43337;52.070;4.508;2023-11-22T02:08:31;103089.81;;;4.97;100.00
49030;BME280;43337;52.070;4.508;2023-11-22T02:10:58;103078.44;;;4.95;100.00
49030;BME280;43337;52.070;4.508;2023-11-22T02:13:24;103077.50;;;4.89;100.00
49030;BME280;43337;52.070;4.508;2023-11-22T02:15:49;103075.78;;;4.92;100.00
49030;BME280;43337;52.070;4.508;2023-11-22T02:18:16;103046.78;;;4.73;100.00
49030;BME280;43337;52.070;4.508;2023-11-22T02:20:42;103075.75;;;4.90;100.00
49030;BME280;43337;52.070;4.508;2023-11-22T02:23:09;103055.47;;;4.74;100.00
49030;BME280;43337;52.070;4.508;2023-11-22T02:25:34;103044.97;;;4.69;100.00
49030;BME280;43337;52.070;4.508;2023-11-22T02:28:01;103065.19;;;4.84;100.00
49030;BME280;43337;52.070;4.508;2023-11-22T02:30:27;103069.53;;;4.83;100.00
49030;BME280;43337;52.070;4.508;2023-11-22T02:32:52;103072.16;;;4.82;100.00
49030;BME280;43337;52.070;4.508;2023-11-22T02:35:19;103080.03;;;4.86;100.00
49030;BME280;43337;52.070;4.508;2023-11-22T02:37:44;103074.81;;;4.86;100.00
49030;BME280;43337;52.070;4.508;2023-11-22T02:40:20;103084.41;;;4.87;100.00
49030;BME280;43337;52.070;4.508;2023-11-22T02:42:47;103062.44;;;4.73;100.00
49030;BME280;43337;52.070;4.508;2023-11-22T02:45:15;103087.81;;;4.83;100.00
49030;BME280;43337;52.070;4.508;2023-11-22T02:47:43;103079.91;;;4.77;100.00
49030;BME280;43337;52.070;4.508;2023-11-22T02:50:14;103085.16;;;4.80;100.00
49030;BME280;43337;52.070;4.508;2023-11-22T02:52:40;103078.97;;;4.74;100.00
49030;BME280;43337;52.070;4.508;2023-11-22T02:55:06;103074.56;;;4.73;100.00
49030;BME280;43337;52.070;4.508;2023-11-22T02:57:32;103050.00;;;4.60;100.00
49030;BME280;43337;52.070;4.508;2023-11-22T02:59:57;103075.41;;;4.70;100.00
49030;BME280;43337;52.070;4.508;2023-11-22T03:02:23;103078.91;;;4.72;100.00
49030;BME280;43337;52.070;4.508;2023-11-22T03:04:50;103079.78;;;4.71;100.00
49030;BME280;43337;52.070;4.508;2023-11-22T03:07:15;103064.91;;;4.65;100.00
49030;BME280;43337;52.070;4.508;2023-11-22T03:09:41;103074.44;;;4.65;100.00
49030;BME280;43337;52.070;4.508;2023-11-22T03:12:08;103051.59;;;4.50;100.00
49030;BME280;43337;52.070;4.508;2023-11-22T03:14:34;103061.16;;;4.53;100.00
49030;BME280;43337;52.070;4.508;2023-11-22T03:17:00;103070.78;;;4.54;100.00
49030;BME280;43337;52.070;4.508;2023-11-22T03:19:26;103082.91;;;4.52;100.00
49030;BME280;43337;52.070;4.508;2023-11-22T03:21:51;103098.69;;;4.59;100.00
49030;BME280;43337;52.070;4.508;2023-11-22T03:24:16;103066.09;;;4.37;100.00
49030;BME280;43337;52.070;4.508;2023-11-22T03:26:42;103052.91;;;4.30;100.00
49030;BME280;43337;52.070;4.508;2023-11-22T03:29:10;103115.13;;;4.54;100.00
49030;BME280;43337;52.070;4.508;2023-11-22T03:31:35;103124.78;;;4.58;100.00
49030;BME280;43337;52.070;4.508;2023-11-22T03:34:02;103121.22;;;4.56;100.00
49030;BME280;43337;52.070;4.508;2023-11-22T03:36:28;103132.59;;;4.58;100.00
49030;BME280;43337;52.070;4.508;2023-11-22T03:38:53;103134.25;;;4.54;100.00
49030;BME280;43337;52.070;4.508;2023-11-22T03:41:18;103142.91;;;4.52;100.00
49030;BME280;43337;52.070;4.508;2023-11-22T03:43:44;103140.22;;;4.49;100.00
49030;BME280;43337;52.070;4.508;2023-11-22T03:46:11;103145.50;;;4.50;100.00
49030;BME280;43337;52.070;4.508;2023-11-22T03:48:36;103144.63;;;4.51;100.00
49030;BME280;43337;52.070;4.508;2023-11-22T03:51:02;103154.34;;;4.58;100.00
49030;BME280;43337;52.070;4.508;2023-11-22T03:53:27;103144.63;;;4.51;100.00
49030;BME280;43337;52.070;4.508;2023-11-22T03:55:53;103161.38;;;4.62;100.00
49030;BME280;43337;52.070;4.508;2023-11-22T03:58:18;103164.84;;;4.61;100.00
49030;BME280;43337;52.070;4.508;2023-11-22T04:00:44;103165.72;;;4.63;100.00
49030;BME280;43337;52.070;4.508;2023-11-22T04:03:10;103161.31;;;4.59;100.00
49030;BME280;43337;52.070;4.508;2023-11-22T04:05:36;103128.69;;;4.37;100.00
49030;BME280;43337;52.070;4.508;2023-11-22T04:08:01;103163.03;;;4.57;100.00
49030;BME280;43337;52.070;4.508;2023-11-22T04:10:26;103170.06;;;4.61;100.00
49030;BME280;43337;52.070;4.508;2023-11-22T04:12:52;103170.88;;;4.60;100.00
49030;BME280;43337;52.070;4.508;2023-11-22T04:15:18;103144.53;;;4.47;100.00
49030;BME280;43337;52.070;4.508;2023-11-22T04:17:43;103141.00;;;4.45;100.00
49030;BME280;43337;52.070;4.508;2023-11-22T04:20:09;103189.19;;;4.62;100.00
49030;BME280;43337;52.070;4.508;2023-11-22T04:22:36;103151.50;;;4.48;100.00
49030;BME280;43337;52.070;4.508;2023-11-22T04:25:02;103178.75;;;4.62;100.00
49030;BME280;43337;52.070;4.508;2023-11-22T04:27:29;103161.88;;;4.45;100.00
49030;BME280;43337;52.070;4.508;2023-11-22T04:29:54;103180.38;;;4.57;100.00
49030;BME280;43337;52.070;4.508;2023-11-22T04:32:20;103172.56;;;4.57;100.00
49030;BME280;43337;52.070;4.508;2023-11-22T04:34:47;103179.44;;;4.53;100.00
49030;BME280;43337;52.070;4.508;2023-11-22T04:37:12;103195.28;;;4.62;100.00
49030;BME280;43337;52.070;4.508;2023-11-22T04:39:38;103190.84;;;4.58;100.00
49030;BME280;43337;52.070;4.508;2023-11-22T04:42:04;103191.75;;;4.60;100.00
49030;BME280;43337;52.070;4.508;2023-11-22T04:44:30;103157.50;;;4.44;100.00
49030;BME280;43337;52.070;4.508;2023-11-22T04:46:57;103188.34;;;4.64;100.00
49030;BME280;43337;52.070;4.508;2023-11-22T04:49:24;103157.59;;;4.47;100.00
49030;BME280;43337;52.070;4.508;2023-11-22T04:51:52;103171.72;;;4.58;100.00
49030;BME280;43337;52.070;4.508;2023-11-22T04:54:18;103151.50;;;4.48;100.00
49030;BME280;43337;52.070;4.508;2023-11-22T04:56:43;103150.66;;;4.49;100.00
49030;BME280;43337;52.070;4.508;2023-11-22T04:59:09;103159.56;;;4.58;100.00
49030;BME280;43337;52.070;4.508;2023-11-22T05:01:34;103136.66;;;4.44;100.00
49030;BME280;43337;52.070;4.508;2023-11-22T05:04:00;103153.31;;;4.52;100.00
49030;BME280;43337;52.070;4.508;2023-11-22T05:06:26;103150.63;;;4.47;100.00
49030;BME280;43337;52.070;4.508;2023-11-22T05:08:52;103184.00;;;4.63;100.00
49030;BME280;43337;52.070;4.508;2023-11-22T05:11:18;103200.50;;;4.62;100.00
49030;BME280;43337;52.070;4.508;2023-11-22T05:13:45;103197.97;;;4.65;100.00
49030;BME280;43337;52.070;4.508;2023-11-22T05:16:10;103190.13;;;4.65;100.00
49030;BME280;43337;52.070;4.508;2023-11-22T05:18:36;103146.22;;;4.45;100.00
49030;BME280;43337;52.070;4.508;2023-11-22T05:21:04;103150.59;;;4.46;100.00
49030;BME280;43337;52.070;4.508;2023-11-22T05:23:30;103172.69;;;4.64;100.00
49030;BME280;43337;52.070;4.508;2023-11-22T05:25:57;103189.28;;;4.67;100.00
49030;BME280;43337;52.070;4.508;2023-11-22T05:28:24;103146.38;;;4.51;100.00
49030;BME280;43337;52.070;4.508;2023-11-22T05:30:50;103126.28;;;4.47;100.00
49030;BME280;43337;52.070;4.508;2023-11-22T05:33:15;103121.13;;;4.50;100.00
49030;BME280;43337;52.070;4.508;2023-11-22T05:35:40;103119.34;;;4.49;100.00
49030;BME280;43337;52.070;4.508;2023-11-22T05:38:06;103110.56;;;4.42;100.00
49030;BME280;43337;52.070;4.508;2023-11-22T05:40:33;103139.44;;;4.53;100.00
49030;BME280;43337;52.070;4.508;2023-11-22T05:42:58;103164.84;;;4.61;100.00
49030;BME280;43337;52.070;4.508;2023-11-22T05:45:25;103163.97;;;4.62;100.00
49030;BME280;43337;52.070;4.508;2023-11-22T05:47:51;103142.75;;;4.46;100.00
49030;BME280;43337;52.070;4.508;2023-11-22T05:50:18;103147.09;;;4.45;100.00
49030;BME280;43337;52.070;4.508;2023-11-22T05:52:43;103121.81;;;4.41;100.00
49030;BME280;43337;52.070;4.508;2023-11-22T05:55:09;103170.94;;;4.62;100.00
49030;BME280;43337;52.070;4.508;2023-11-22T05:57:39;103146.16;;;4.41;100.00
49030;BME280;43337;52.070;4.508;2023-11-22T06:00:06;103181.31;;;4.60;100.00
49030;BME280;43337;52.070;4.508;2023-11-22T06:02:31;103166.38;;;4.53;100.00
49030;BME280;43337;52.070;4.508;2023-11-22T06:04:58;103166.19;;;4.43;100.00
49030;BME280;43337;52.070;4.508;2023-11-22T06:07:23;103169.59;;;4.40;100.00
49030;BME280;43337;52.070;4.508;2023-11-22T06:09:48;103200.28;;;4.52;100.00
49030;BME280;43337;52.070;4.508;2023-11-22T06:12:15;103198.31;;;4.40;100.00
49030;BME280;43337;52.070;4.508;2023-11-22T06:14:40;103223.84;;;4.56;100.00
49030;BME280;43337;52.070;4.508;2023-11-22T06:17:06;103204.31;;;4.37;100.00
49030;BME280;43337;52.070;4.508;2023-11-22T06:19:33;103185.03;;;4.29;100.00
49030;BME280;43337;52.070;4.508;2023-11-22T06:21:59;103219.34;;;4.49;100.00
49030;BME280;43337;52.070;4.508;2023-11-22T06:24:26;103227.22;;;4.51;100.00
49030;BME280;43337;52.070;4.508;2023-11-22T06:26:52;103231.66;;;4.55;100.00
49030;BME280;43337;52.070;4.508;2023-11-22T06:29:17;103216.88;;;4.54;100.00
49030;BME280;43337;52.070;4.508;2023-11-22T06:31:42;103185.09;;;4.32;100.00
49030;BME280;43337;52.070;4.508;2023-11-22T06:34:08;103205.53;;;4.53;100.00
49030;BME280;43337;52.070;4.508;2023-11-22T06:36:33;103157.28;;;4.31;100.00
49030;BME280;43337;52.070;4.508;2023-11-22T06:38:59;103188.94;;;4.50;100.00
49030;BME280;43337;52.070;4.508;2023-11-22T06:41:25;103180.13;;;4.45;100.00
49030;BME280;43337;52.070;4.508;2023-11-22T06:43:50;103188.94;;;4.50;100.00
49030;BME280;43337;52.070;4.508;2023-11-22T06:46:18;103182.81;;;4.48;100.00
49030;BME280;43337;52.070;4.508;2023-11-22T06:48:43;103151.13;;;4.29;100.00
49030;BME280;43337;52.070;4.508;2023-11-22T06:51:09;103185.34;;;4.45;100.00
49030;BME280;43337;52.070;4.508;2023-11-22T06:53:34;103189.69;;;4.44;100.00
49030;BME280;43337;52.070;4.508;2023-11-22T06:56:00;103190.50;;;4.41;100.00
49030;BME280;43337;52.070;4.508;2023-11-22T06:58:26;103184.38;;;4.39;100.00
49030;BME280;43337;52.070;4.508;2023-11-22T07:00:51;103193.09;;;4.41;100.00
49030;BME280;43337;52.070;4.508;2023-11-22T07:03:17;103185.97;;;4.33;100.00
49030;BME280;43337;52.070;4.508;2023-11-22T07:05:42;103209.53;;;4.37;100.00
49030;BME280;43337;52.070;4.508;2023-11-22T07:08:08;103182.16;;;4.17;100.00
49030;BME280;43337;52.070;4.508;2023-11-22T07:13:32;103196.84;;;4.12;100.00
49030;BME280;43337;52.070;4.508;2023-11-22T07:16:33;103224.81;;;4.21;100.00
49030;BME280;43337;52.070;4.508;2023-11-22T07:18:59;103256.44;;;4.34;100.00
49030;BME280;43337;52.070;4.508;2023-11-22T07:21:25;103237.19;;;4.29;100.00
49030;BME280;43337;52.070;4.508;2023-11-22T07:23:51;103207.31;;;4.15;100.00
49030;BME280;43337;52.070;4.508;2023-11-22T07:26:18;103218.81;;;4.23;100.00
49030;BME280;43337;52.070;4.508;2023-11-22T07:28:44;103220.50;;;4.23;100.00
49030;BME280;43337;52.070;4.508;2023-11-22T07:31:10;103223.16;;;4.24;100.00
49030;BME280;43337;52.070;4.508;2023-11-22T07:33:36;103227.41;;;4.19;100.00
49030;BME280;43337;52.070;4.508;2023-11-22T07:36:02;103230.84;;;4.18;100.00
49030;BME280;43337;52.070;4.508;2023-11-22T07:38:28;103218.59;;;4.14;100.00
49030;BME280;43337;52.070;4.508;2023-11-22T07:40:54;103236.91;;;4.17;100.00
49030;BME280;43337;52.070;4.508;2023-11-22T07:43:20;103222.66;;;4.01;100.00
49030;BME280;43337;52.070;4.508;2023-11-22T07:45:46;103256.81;;;4.13;100.00
49030;BME280;43337;52.070;4.508;2023-11-22T07:48:14;103230.31;;;3.95;100.00
49030;BME280;43337;52.070;4.508;2023-11-22T07:50:40;103263.72;;;4.11;100.00
49030;BME280;43337;52.070;4.508;2023-11-22T07:53:09;103225.88;;;3.91;100.00
49030;BME280;43337;52.070;4.508;2023-11-22T07:55:34;103242.47;;;3.95;100.00
49030;BME280;43337;52.070;4.508;2023-11-22T07:58:02;103249.31;;;3.91;100.00
49030;BME280;43337;52.070;4.508;2023-11-22T08:00:28;103276.59;;;4.05;100.00
49030;BME280;43337;52.070;4.508;2023-11-22T08:02:55;103291.56;;;4.12;100.00
49030;BME280;43337;52.070;4.508;2023-11-22T08:05:20;103273.22;;;4.09;100.00
49030;BME280;43337;52.070;4.508;2023-11-22T08:07:49;103266.38;;;4.13;100.00
49030;BME280;43337;52.070;4.508;2023-11-22T08:10:15;103284.78;;;4.19;100.00
49030;BME280;43337;52.070;4.508;2023-11-22T08:12:46;103252.22;;;4.03;100.00
49030;BME280;43337;52.070;4.508;2023-11-22T08:15:12;103284.09;;;4.28;100.00
49030;BME280;43337;52.070;4.508;2023-11-22T08:17:41;103287.66;;;4.31;100.00
49030;BME280;43337;52.070;4.508;2023-11-22T08:20:08;103290.34;;;4.34;100.00
49030;BME280;43337;52.070;4.508;2023-11-22T08:22:39;103286.81;;;4.34;100.00
49030;BME280;43337;52.070;4.508;2023-11-22T08:25:06;103263.00;;;4.19;100.00
49030;BME280;43337;52.070;4.508;2023-11-22T08:27:33;103294.72;;;4.37;100.00
49030;BME280;43337;52.070;4.508;2023-11-22T08:29:59;103300.94;;;4.42;100.00
49030;BME280;43337;52.070;4.508;2023-11-22T08:32:32;103303.59;;;4.45;100.00
49030;BME280;43337;52.070;4.508;2023-11-22T08:34:59;103311.56;;;4.51;100.00
49030;BME280;43337;52.070;4.508;2023-11-22T08:37:25;103295.84;;;4.48;100.00
49030;BME280;43337;52.070;4.508;2023-11-22T08:39:50;103302.09;;;4.55;100.00
49030;BME280;43337;52.070;4.508;2023-11-22T08:42:16;103264.44;;;4.44;100.00
49030;BME280;43337;52.070;4.508;2023-11-22T08:44:43;103272.44;;;4.50;100.00
49030;BME280;43337;52.070;4.508;2023-11-22T08:47:08;103287.47;;;4.63;100.00
49030;BME280;43337;52.070;4.508;2023-11-22T08:49:34;103276.25;;;4.65;100.00
49030;BME280;43337;52.070;4.508;2023-11-22T08:52:00;103260.50;;;4.62;100.00
49030;BME280;43337;52.070;4.508;2023-11-22T08:54:26;103245.59;;;4.57;100.00
49030;BME280;43337;52.070;4.508;2023-11-22T08:56:55;103282.56;;;4.77;100.00
49030;BME280;43337;52.070;4.508;2023-11-22T08:59:25;103277.38;;;4.80;100.00
49030;BME280;43337;52.070;4.508;2023-11-22T09:01:53;103273.88;;;4.78;100.00
49030;BME280;43337;52.070;4.508;2023-11-22T09:04:19;103276.66;;;4.85;100.00
49030;BME280;43337;52.070;4.508;2023-11-22T09:06:45;103268.81;;;4.85;100.00
49030;BME280;43337;52.070;4.508;2023-11-22T09:09:12;103244.16;;;4.70;100.00
49030;BME280;43337;52.070;4.508;2023-11-22T09:11:41;103290.72;;;4.94;100.00
49030;BME280;43337;52.070;4.508;2023-11-22T09:14:06;103295.16;;;4.96;100.00
49030;BME280;43337;52.070;4.508;2023-11-22T09:16:38;103279.34;;;4.88;100.00
49030;BME280;43337;52.070;4.508;2023-11-22T09:19:04;103258.31;;;4.82;100.00
49030;BME280;43337;52.070;4.508;2023-11-22T09:21:31;103276.97;;;5.01;100.00
49030;BME280;43337;52.070;4.508;2023-11-22T09:23:57;103228.66;;;4.77;100.00
49030;BME280;43337;52.070;4.508;2023-11-22T09:26:22;103258.41;;;4.87;100.00
49030;BME280;43337;52.070;4.508;2023-11-22T09:28:47;103290.22;;;5.11;100.00
49030;BME280;43337;52.070;4.508;2023-11-22T09:31:13;103275.38;;;5.07;100.00
49030;BME280;43337;52.070;4.508;2023-11-22T09:33:43;103231.44;;;4.88;100.00
49030;BME280;43337;52.070;4.508;2023-11-22T09:36:11;103272.91;;;5.17;100.00
49030;BME280;43337;52.070;4.508;2023-11-22T09:38:37;103242.16;;;5.00;100.00
49030;BME280;43337;52.070;4.508;2023-11-22T09:41:03;103269.50;;;5.21;100.00
49030;BME280;43337;52.070;4.508;2023-11-22T09:43:29;103271.25;;;5.20;100.00
49030;BME280;43337;52.070;4.508;2023-11-22T09:45:54;103268.69;;;5.23;100.00
49030;BME280;43337;52.070;4.508;2023-11-22T09:48:25;103269.56;;;5.24;100.00
49030;BME280;43337;52.070;4.508;2023-11-22T09:51:04;103267.84;;;5.24;100.00
49030;BME280;43337;52.070;4.508;2023-11-22T09:53:57;103274.00;;;5.28;100.00
49030;BME280;43337;52.070;4.508;2023-11-22T09:56:26;103250.28;;;5.17;100.00
49030;BME280;43337;52.070;4.508;2023-11-22T09:58:53;103275.00;;;5.34;100.00
49030;BME280;43337;52.070;4.508;2023-11-22T10:01:25;103273.28;;;5.36;100.00
49030;BME280;43337;52.070;4.508;2023-11-22T10:03:54;103213.59;;;5.11;100.00
49030;BME280;43337;52.070;4.508;2023-11-22T10:06:19;103257.72;;;5.43;100.00
49030;BME280;43337;52.070;4.508;2023-11-22T10:08:46;103230.63;;;5.37;100.00
49030;BME280;43337;52.070;4.508;2023-11-22T10:11:17;103256.31;;;5.61;100.00
49030;BME280;43337;52.070;4.508;2023-11-22T10:13:49;103244.19;;;5.65;100.00
49030;BME280;43337;52.070;4.508;2023-11-22T10:16:21;103217.97;;;5.60;100.00
49030;BME280;43337;52.070;4.508;2023-11-22T10:18:48;103212.84;;;5.68;100.00
49030;BME280;43337;52.070;4.508;2023-11-22T10:21:25;103240.22;;;5.92;100.00
49030;BME280;43337;52.070;4.508;2023-11-22T10:24:02;103236.88;;;5.97;100.00
49030;BME280;43337;52.070;4.508;2023-11-22T10:26:30;103227.31;;;5.99;100.00
49030;BME280;43337;52.070;4.508;2023-11-22T10:28:56;103218.66;;;6.02;100.00
49030;BME280;43337;52.070;4.508;2023-11-22T10:31:23;103182.66;;;5.85;100.00
49030;BME280;43337;52.070;4.508;2023-11-22T10:33:49;103164.19;;;5.75;100.00
49030;BME280;43337;52.070;4.508;2023-11-22T10:36:15;103185.47;;;5.96;100.00
49030;BME280;43337;52.070;4.508;2023-11-22T10:38:41;103211.88;;;6.16;100.00
49030;BME280;43337;52.070;4.508;2023-11-22T10:41:08;103201.38;;;6.15;100.00
49030;BME280;43337;52.070;4.508;2023-11-22T10:43:37;103212.00;;;6.25;100.00
49030;BME280;43337;52.070;4.508;2023-11-22T10:46:03;103202.50;;;6.30;100.00
49030;BME280;43337;52.070;4.508;2023-11-22T10:48:30;103172.66;;;6.16;100.00
49030;BME280;43337;52.070;4.508;2023-11-22T10:51:00;103199.00;;;6.31;100.00
49030;BME280;43337;52.070;4.508;2023-11-22T10:53:32;103183.28;;;6.27;100.00
49030;BME280;43337;52.070;4.508;2023-11-22T10:59:32;103194.91;;;6.50;100.00
49030;BME280;43337;52.070;4.508;2023-11-22T11:03:03;103139.72;;;6.30;100.00
49030;BME280;43337;52.070;4.508;2023-11-22T11:06:10;103108.19;;;6.20;100.00
49030;BME280;43337;52.070;4.508;2023-11-22T11:08:45;103116.09;;;6.24;100.00
49030;BME280;43337;52.070;4.508;2023-11-22T11:11:17;103121.38;;;6.29;100.00
49030;BME280;43337;52.070;4.508;2023-11-22T11:13:43;103196.84;;;6.67;100.00
49030;BME280;43337;52.070;4.508;2023-11-22T11:16:08;103149.50;;;6.48;100.00
49030;BME280;43337;52.070;4.508;2023-11-22T11:18:38;103159.22;;;6.58;100.00
49030;BME280;43337;52.070;4.508;2023-11-22T11:21:17;103156.78;;;6.74;100.00
49030;BME280;43337;52.070;4.508;2023-11-22T11:23:47;103166.41;;;6.78;100.00
49030;BME280;43337;52.070;4.508;2023-11-22T11:46:57;103156.25;;;7.10;100.00
49030;BME280;43337;52.070;4.508;2023-11-22T11:49:22;103105.47;;;6.93;100.00
49030;BME280;43337;52.070;4.508;2023-11-22T11:51:56;103133.63;;;7.15;100.00
49030;BME280;43337;52.070;4.508;2023-11-22T11:54:21;103128.34;;;7.12;100.00
49030;BME280;43337;52.070;4.508;2023-11-22T11:56:54;103090.69;;;6.99;100.00
49030;BME280;43337;52.070;4.508;2023-11-22T11:59:34;103063.47;;;6.83;100.00
49030;BME280;43337;52.070;4.508;2023-11-22T12:02:00;103102.09;;;7.06;100.00
49030;BME280;43337;52.070;4.508;2023-11-22T12:04:31;103056.50;;;6.81;100.00
49030;BME280;43337;52.070;4.508;2023-11-22T12:06:59;103082.84;;;7.02;100.00
49030;BME280;43337;52.070;4.508;2023-11-22T12:09:33;103046.09;;;6.89;100.00
49030;BME280;43337;52.070;4.508;2023-11-22T12:12:04;103078.53;;;7.09;100.00
49030;BME280;43337;52.070;4.508;2023-11-22T12:14:30;103060.16;;;7.00;100.00
49030;BME280;43337;52.070;4.508;2023-11-22T12:16:58;103085.63;;;7.19;100.00
49030;BME280;43337;52.070;4.508;2023-11-22T12:19:28;103080.38;;;7.21;100.00
49030;BME280;43337;52.070;4.508;2023-11-22T12:21:56;103080.38;;;7.21;100.00
49030;BME280;43337;52.070;4.508;2023-11-22T12:24:23;103083.84;;;7.18;100.00
49030;BME280;43337;52.070;4.508;2023-11-22T12:26:51;103025.94;;;6.83;100.00
49030;BME280;43337;52.070;4.508;2023-11-22T12:29:19;103079.47;;;7.17;100.00
49030;BME280;43337;52.070;4.508;2023-11-22T12:31:45;103069.03;;;7.19;100.00
49030;BME280;43337;52.070;4.508;2023-11-22T12:34:14;103055.06;;;7.20;100.00
49030;BME280;43337;52.070;4.508;2023-11-22T12:36:40;103057.72;;;7.29;100.00
49030;BME280;43337;52.070;4.508;2023-11-22T12:39:10;103063.00;;;7.32;100.00
49030;BME280;43337;52.070;4.508;2023-11-22T12:41:51;103062.22;;;7.42;100.00
49030;BME280;43337;52.070;4.508;2023-11-22T12:44:21;103063.09;;;7.47;100.00
49030;BME280;43337;52.070;4.508;2023-11-22T12:46:48;103032.47;;;7.36;100.00
49030;BME280;43337;52.070;4.508;2023-11-22T12:49:16;103049.16;;;7.51;100.00
49030;BME280;43337;52.070;4.508;2023-11-22T12:51:46;103051.72;;;7.44;100.00
49030;BME280;43337;52.070;4.508;2023-11-22T12:54:13;103030.69;;;7.33;100.00
49030;BME280;43337;52.070;4.508;2023-11-22T12:56:46;103048.28;;;7.52;100.00
49030;BME280;43337;52.070;4.508;2023-11-22T12:59:24;103041.28;;;7.51;100.00
49030;BME280;43337;52.070;4.508;2023-11-22T13:01:59;102979.97;;;7.20;100.00
49030;BME280;43337;52.070;4.508;2023-11-22T13:04:34;102965.06;;;7.15;100.00
49030;BME280;43337;52.070;4.508;2023-11-22T13:07:00;102981.75;;;7.27;100.00
49030;BME280;43337;52.070;4.508;2023-11-22T13:09:26;103029.94;;;7.55;100.00
49030;BME280;43337;52.070;4.508;2023-11-22T13:11:52;102971.28;;;7.32;100.00
49030;BME280;43337;52.070;4.508;2023-11-22T13:14:18;102977.44;;;7.40;100.00
49030;BME280;43337;52.070;4.508;2023-11-22T13:16:43;103011.59;;;7.54;100.00
49030;BME280;43337;52.070;4.508;2023-11-22T13:22:21;102989.69;;;7.38;100.00